Time;durP1;ratioP1;P1;durP2;ratioP2;P2;SDS_P1;SDS_P2;PMS_P1;PMS_P2;Temp;Humidity;BMP_temperature;BMP_pressure;BME280_temperature;BME280_humidity;BME280_pressure;Samples;Min_cycle;Max_cycle;Signal;HPM_P1;HPM_P2
2022/06/06 00:01:24;;;;;;;7.30;4.40;;;25.70;49.70;;;;;;4941172;28;88468;-76
2022/06/06 00:03:54;;;;;;;5.57;4.07;;;25.70;49.70;;;;;;4936436;28;90578;-76
2022/06/06 00:06:23;;;;;;;5.97;3.97;;;25.70;49.70;;;;;;4942344;28;92027;-76
2022/06/06 00:08:53;;;;;;;5.97;4.10;;;25.70;49.70;;;;;;4951732;28;88574;-76
2022/06/06 00:11:22;;;;;;;9.47;4.43;;;25.60;49.60;;;;;;4943462;28;88461;-76
2022/06/06 00:13:50;;;;;;;5.80;3.50;;;25.60;49.60;;;;;;4942574;28;89617;-75
2022/06/06 00:16:18;;;;;;;8.10;4.47;;;25.60;49.60;;;;;;4943227;28;89968;-73
2022/06/06 00:18:47;;;;;;;6.63;3.93;;;25.60;49.60;;;;;;4943489;28;89203;-75
2022/06/06 00:21:17;;;;;;;6.53;3.87;;;25.60;49.60;;;;;;4943802;28;88572;-75
2022/06/06 00:23:45;;;;;;;4.83;3.57;;;25.60;49.60;;;;;;4942747;28;92855;-75
2022/06/06 00:26:15;;;;;;;5.60;3.33;;;25.60;49.60;;;;;;4944208;28;88562;-75
2022/06/06 00:28:44;;;;;;;3.53;3.20;;;25.60;49.60;;;;;;4943860;28;88489;-76
2022/06/06 00:36:44;;;;;;;6.37;3.67;;;25.60;49.60;;;;;;4943065;28;89555;-75
2022/06/06 00:39:14;;;;;;;4.97;3.90;;;25.60;49.60;;;;;;4942812;28;92336;-76
2022/06/06 00:41:45;;;;;;;5.63;3.97;;;25.60;49.60;;;;;;4942778;28;88710;-75
2022/06/06 00:44:14;;;;;;;5.30;3.20;;;25.60;49.60;;;;;;4942778;28;92693;-75
2022/06/06 00:46:45;;;;;;;4.53;3.47;;;25.60;49.60;;;;;;4942158;28;89206;-75
2022/06/06 00:49:15;;;;;;;4.13;2.93;;;25.60;49.60;;;;;;4942855;28;88292;-75
2022/06/06 00:51:43;;;;;;;5.10;3.23;;;25.50;49.50;;;;;;4937922;28;88351;-76
2022/06/06 00:54:11;;;;;;;4.17;3.40;;;25.50;49.40;;;;;;4959571;28;90869;-76
2022/06/06 00:56:40;;;;;;;7.50;4.07;;;25.50;49.50;;;;;;4951208;28;90375;-75
2022/06/06 00:59:12;;;;;;;5.57;3.83;;;25.50;49.50;;;;;;4944379;28;88356;-75
2022/06/06 01:01:40;;;;;;;7.37;3.90;;;25.50;49.50;;;;;;4942659;28;88615;-75
2022/06/06 01:04:09;;;;;;;6.73;3.43;;;25.50;49.50;;;;;;4941922;28;89814;-76
2022/06/06 01:06:39;;;;;;;4.60;3.13;;;25.50;49.50;;;;;;4942063;28;89268;-75
2022/06/06 01:09:07;;;;;;;5.17;3.60;;;25.50;49.50;;;;;;4942345;28;89182;-75
2022/06/06 01:11:36;;;;;;;5.90;3.13;;;25.50;49.50;;;;;;4942445;28;88667;-75
2022/06/06 01:14:04;;;;;;;4.17;2.93;;;25.50;49.50;;;;;;4943286;28;89324;-76
2022/06/06 01:16:41;;;;;;;3.50;3.00;;;25.50;49.40;;;;;;4953492;28;89799;-75
2022/06/06 01:19:33;;;;;;;4.83;3.53;;;25.50;49.50;;;;;;4933908;28;89218;-75
2022/06/06 01:22:36;;;;;;;6.63;3.97;;;25.50;49.50;;;;;;4935963;28;88425;-75
2022/06/06 01:25:28;;;;;;;5.83;3.80;;;25.50;49.50;;;;;;4941968;28;92616;-76
2022/06/06 01:27:58;;;;;;;4.13;3.03;;;25.50;49.50;;;;;;4941854;28;88984;-75
2022/06/06 01:30:30;;;;;;;5.23;3.43;;;25.50;49.40;;;;;;4942399;28;89739;-75
2022/06/06 01:32:59;;;;;;;4.83;3.30;;;25.50;49.40;;;;;;4942402;28;88640;-76
2022/06/06 01:35:28;;;;;;;4.70;3.13;;;25.50;49.40;;;;;;4942337;28;91876;-76
2022/06/06 01:37:57;;;;;;;3.63;2.80;;;25.50;49.50;;;;;;4942638;28;89152;-76
2022/06/06 01:40:26;;;;;;;4.17;2.90;;;25.50;49.40;;;;;;4941043;28;88324;-76
2022/06/06 01:42:56;;;;;;;3.90;3.07;;;25.50;49.40;;;;;;4942147;28;88674;-76
2022/06/06 01:45:29;;;;;;;5.10;3.73;;;25.50;49.40;;;;;;4942131;28;90278;-73
2022/06/06 01:48:01;;;;;;;4.60;3.07;;;25.50;49.40;;;;;;4942011;28;90951;-73
2022/06/06 01:50:29;;;;;;;4.87;3.20;;;25.50;49.40;;;;;;4941417;28;88290;-73
2022/06/06 01:52:59;;;;;;;5.60;3.13;;;25.50;49.40;;;;;;4941700;28;88663;-73
2022/06/06 01:55:27;;;;;;;7.27;3.70;;;25.50;49.40;;;;;;4941718;28;92906;-73
2022/06/06 01:57:59;;;;;;;3.60;2.97;;;25.50;49.40;;;;;;4941336;28;91374;-73
2022/06/06 02:00:29;;;;;;;4.17;2.93;;;25.40;49.30;;;;;;4941678;28;88898;-73
2022/06/06 02:02:57;;;;;;;3.93;2.57;;;25.40;49.30;;;;;;4941647;28;88600;-73
2022/06/06 02:05:25;;;;;;;5.07;3.30;;;25.50;49.40;;;;;;4941772;28;93526;-73
2022/06/06 02:07:53;;;;;;;3.10;2.67;;;25.40;49.30;;;;;;4941945;28;93032;-74
2022/06/06 02:10:21;;;;;;;3.67;2.70;;;25.40;49.30;;;;;;4940878;28;88654;-74
2022/06/06 02:12:49;;;;;;;3.23;2.30;;;25.50;49.30;;;;;;4941633;28;88309;-73
2022/06/06 02:15:18;;;;;;;4.97;2.73;;;25.40;49.30;;;;;;4941523;28;91345;-73
2022/06/06 02:17:48;;;;;;;4.97;3.07;;;25.40;49.30;;;;;;4941300;28;90097;-73
2022/06/06 02:20:17;;;;;;;6.57;3.27;;;25.40;49.30;;;;;;4941495;28;88976;-74
2022/06/06 02:22:45;;;;;;;4.30;2.70;;;25.40;49.30;;;;;;4942291;28;88546;-73
2022/06/06 02:25:14;;;;;;;4.87;3.00;;;25.40;49.30;;;;;;4941666;28;90060;-74
2022/06/06 02:27:42;;;;;;;3.10;2.47;;;25.40;49.30;;;;;;4941177;28;89574;-73
2022/06/06 02:30:13;;;;;;;3.53;2.27;;;25.40;49.30;;;;;;4940941;28;89314;-74
2022/06/06 02:32:41;;;;;;;4.83;3.03;;;25.40;49.30;;;;;;4941678;28;88484;-74
2022/06/06 02:35:14;;;;;;;6.03;3.20;;;25.40;49.20;;;;;;4941362;28;90629;-74
2022/06/06 02:37:44;;;;;;;4.17;2.83;;;25.40;49.20;;;;;;4942047;28;88862;-74
2022/06/06 02:40:12;;;;;;;4.07;2.30;;;25.40;49.20;;;;;;4941319;28;88413;-73
2022/06/06 02:42:40;;;;;;;4.27;2.70;;;25.40;49.20;;;;;;4941315;28;88476;-73
2022/06/06 02:45:10;;;;;;;3.63;2.40;;;25.40;49.90;;;;;;4940945;28;93227;-73
2022/06/06 02:47:38;;;;;;;4.13;2.90;;;25.40;49.20;;;;;;4940636;28;89056;-73
2022/06/06 02:50:07;;;;;;;3.53;2.47;;;25.40;49.20;;;;;;4941399;28;88334;-73
2022/06/06 02:52:37;;;;;;;3.80;2.30;;;25.40;49.20;;;;;;4941173;28;88748;-72
2022/06/06 02:55:06;;;;;;;3.73;2.50;;;25.30;49.10;;;;;;4940860;28;89589;-73
2022/06/06 02:57:36;;;;;;;4.17;2.40;;;25.40;49.20;;;;;;4940170;28;89235;-73
2022/06/06 03:00:06;;;;;;;5.13;2.77;;;25.30;49.20;;;;;;4941317;28;88463;-73
2022/06/06 03:02:35;;;;;;;4.97;2.37;;;25.40;49.20;;;;;;4941072;28;88120;-73
2022/06/06 03:05:03;;;;;;;5.40;2.60;;;25.30;49.10;;;;;;4940550;28;88620;-73
2022/06/06 03:07:34;;;;;;;4.07;2.90;;;25.30;49.10;;;;;;4940014;28;90449;-73
2022/06/06 03:10:08;;;;;;;3.63;2.80;;;25.30;49.10;;;;;;4939899;28;91351;-73
2022/06/06 03:12:45;;;;;;;5.20;3.17;;;25.30;49.10;;;;;;4941496;28;88422;-73
2022/06/06 03:15:23;;;;;;;4.00;2.43;;;25.30;49.10;;;;;;4940141;28;89897;-73
2022/06/06 03:20:48;;;;;;;4.93;2.70;;;25.30;49.20;;;;;;4902772;28;90782;-73
2022/06/06 03:23:44;;;;;;;4.93;2.57;;;25.30;49.10;;;;;;4902820;28;88490;-74
2022/06/06 03:26:18;;;;;;;2.80;2.40;;;25.30;49.20;;;;;;4927658;28;89592;-73
2022/06/06 03:28:58;;;;;;;3.33;2.43;;;25.30;49.20;;;;;;4921423;28;92843;-73
2022/06/06 03:31:30;;;;;;;4.77;2.80;;;25.30;49.20;;;;;;4937757;28;88444;-73
2022/06/06 03:34:00;;;;;;;3.47;2.77;;;25.30;49.20;;;;;;4940523;28;88698;-73
2022/06/06 03:36:31;;;;;;;6.87;3.17;;;25.30;49.20;;;;;;4925656;28;90694;-73
2022/06/06 03:39:04;;;;;;;6.87;3.27;;;25.30;49.10;;;;;;4939915;28;90253;-73
2022/06/06 03:41:35;;;;;;;8.67;4.03;;;25.30;49.10;;;;;;4938045;28;88867;-73
2022/06/06 03:44:09;;;;;;;5.67;3.47;;;25.30;49.10;;;;;;4925503;28;88579;-72
2022/06/06 03:46:42;;;;;;;7.07;3.67;;;25.30;49.10;;;;;;4926874;28;89974;-75
2022/06/06 03:49:17;;;;;;;6.10;3.27;;;25.30;49.10;;;;;;4943279;28;90311;-73
2022/06/06 03:51:50;;;;;;;6.17;3.00;;;25.30;49.10;;;;;;4940839;28;88999;-73
2022/06/06 03:54:23;;;;;;;7.33;3.90;;;25.30;49.10;;;;;;4931905;28;88627;-73
2022/06/06 03:57:00;;;;;;;8.33;3.70;;;25.30;49.70;;;;;;4941003;28;90602;-73
2022/06/06 03:59:28;;;;;;;7.10;4.13;;;25.20;49.10;;;;;;4942394;28;90954;-74
2022/06/06 04:02:04;;;;;;;6.90;4.27;;;25.20;49.10;;;;;;4944612;28;89940;-74
2022/06/06 04:04:33;;;;;;;7.23;3.93;;;25.20;49.00;;;;;;4931377;28;88311;-76
2022/06/06 04:07:02;;;;;;;5.63;3.57;;;25.20;49.00;;;;;;4924388;28;90765;-75
2022/06/06 04:09:30;;;;;;;7.87;3.57;;;25.20;49.00;;;;;;4923255;28;89252;-75
2022/06/06 04:12:05;;;;;;;4.17;3.10;;;25.20;49.00;;;;;;4938902;28;88118;-75
2022/06/06 04:14:41;;;;;;;6.13;4.37;;;25.20;49.00;;;;;;4943076;28;88606;-75
2022/06/06 04:17:18;;;;;;;6.47;3.87;;;25.20;49.00;;;;;;4942829;28;92566;-75
2022/06/06 04:19:54;;;;;;;9.87;4.47;;;25.20;49.00;;;;;;4942210;28;92514;-75
2022/06/06 04:22:24;;;;;;;5.73;3.57;;;25.20;49.00;;;;;;4943717;28;88405;-75
2022/06/06 04:25:00;;;;;;;8.10;3.87;;;25.20;49.00;;;;;;4943901;28;88372;-75
2022/06/06 04:27:35;;;;;;;6.93;4.23;;;25.20;49.10;;;;;;4935580;28;90098;-75
2022/06/06 04:30:05;;;;;;;7.67;4.07;;;25.20;49.10;;;;;;4924366;28;88243;-75
2022/06/06 04:32:43;;;;;;;8.13;3.80;;;25.20;49.00;;;;;;4923773;28;89828;-75
2022/06/06 04:35:15;;;;;;;8.03;3.70;;;25.20;49.10;;;;;;4923796;28;88685;-75
2022/06/06 04:37:48;;;;;;;7.13;3.87;;;25.20;49.10;;;;;;4923641;28;90611;-75
2022/06/06 04:40:19;;;;;;;7.37;4.10;;;25.20;49.00;;;;;;4924484;28;89117;-74
2022/06/06 04:42:51;;;;;;;8.17;4.40;;;25.20;49.00;;;;;;4923852;28;88569;-74
2022/06/06 04:45:22;;;;;;;7.37;4.43;;;25.40;48.90;;;;;;4924868;28;88507;-74
2022/06/06 04:47:50;;;;;;;9.43;4.57;;;25.40;48.80;;;;;;4927453;28;89999;-75
2022/06/06 04:50:20;;;;;;;7.53;3.73;;;25.30;48.70;;;;;;4934156;28;89112;-75
2022/06/06 04:52:50;;;;;;;5.93;4.13;;;25.30;48.80;;;;;;4941079;28;88568;-75
2022/06/06 04:55:20;;;;;;;9.50;3.70;;;25.30;48.80;;;;;;4941431;28;88723;-75
2022/06/06 04:57:52;;;;;;;6.93;3.97;;;25.40;48.80;;;;;;4941995;28;90680;-74
2022/06/06 05:00:20;;;;;;;7.53;3.80;;;25.40;48.80;;;;;;4942587;28;89001;-74
2022/06/06 05:02:48;;;;;;;9.17;4.13;;;25.50;48.70;;;;;;4928126;28;89274;-75
2022/06/06 05:05:16;;;;;;;6.97;3.67;;;25.60;48.50;;;;;;4924032;28;88770;-74
2022/06/06 05:08:01;;;;;;;8.33;4.43;;;25.60;48.40;;;;;;4923143;28;90018;-74
2022/06/06 05:10:54;;;;;;;9.40;3.97;;;25.70;48.50;;;;;;4932340;28;89002;-75
2022/06/06 05:13:49;;;;;;;9.13;4.33;;;25.80;48.40;;;;;;4940864;28;88310;-74
2022/06/06 05:16:39;;;;;;;6.33;4.47;;;25.80;48.30;;;;;;4922665;28;88857;-75
2022/06/06 05:19:33;;;;;;;6.67;3.57;;;25.80;48.20;;;;;;4922320;28;92975;-75
2022/06/06 05:22:13;;;;;;;7.67;3.90;;;25.80;48.20;;;;;;4918652;28;88578;-75
2022/06/06 05:24:55;;;;;;;5.87;3.70;;;25.80;48.30;;;;;;4923436;28;88371;-74
2022/06/06 05:27:31;;;;;;;6.57;3.93;;;25.70;48.30;;;;;;4932761;28;88675;-74
2022/06/06 05:30:07;;;;;;;7.73;3.43;;;25.80;48.30;;;;;;4930249;28;90327;-75
2022/06/06 05:32:51;;;;;;;4.87;3.00;;;25.80;48.20;;;;;;4922040;28;88990;-75
2022/06/06 05:35:23;;;;;;;7.73;3.87;;;25.80;48.80;;;;;;4922734;28;88810;-75
2022/06/06 05:37:56;;;;;;;7.37;3.37;;;25.70;48.20;;;;;;4931124;28;88692;-75
2022/06/06 05:40:34;;;;;;;7.20;3.50;;;25.70;48.20;;;;;;4928777;28;89922;-75
2022/06/06 05:43:08;;;;;;;5.40;3.50;;;25.80;48.30;;;;;;4922161;28;89272;-75
2022/06/06 05:45:42;;;;;;;6.03;3.67;;;25.80;48.20;;;;;;4920510;28;90564;-75
2022/06/06 05:48:23;;;;;;;4.67;2.97;;;25.70;48.10;;;;;;4903297;28;88348;-75
2022/06/06 05:50:59;;;;;;;5.97;3.00;;;25.70;48.20;;;;;;4922848;28;91163;-75
2022/06/06 05:53:40;;;;;;;5.50;2.77;;;25.70;48.20;;;;;;4936250;28;88714;-75
2022/06/06 05:56:24;;;;;;;6.00;2.93;;;25.70;48.20;;;;;;4934604;28;88702;-74
2022/06/06 05:59:03;;;;;;;4.87;2.60;;;25.70;48.20;;;;;;4928533;28;88632;-75
2022/06/06 06:01:56;;;;;;;4.47;2.83;;;25.70;48.20;;;;;;4936098;28;93040;-75
2022/06/06 06:04:38;;;;;;;4.43;2.80;;;25.70;48.10;;;;;;4926665;28;89901;-74
2022/06/06 06:07:12;;;;;;;4.13;2.53;;;25.70;48.70;;;;;;4926091;28;88444;-75
2022/06/06 06:09:48;;;;;;;3.27;2.50;;;25.70;48.00;;;;;;4931840;28;88605;-75
2022/06/06 06:12:31;;;;;;;3.37;1.97;;;25.70;48.10;;;;;;4932317;28;89765;-75
2022/06/06 06:15:04;;;;;;;7.87;2.40;;;25.70;48.70;;;;;;4953870;28;89978;-74
2022/06/06 06:17:34;;;;;;;5.00;2.37;;;25.70;48.10;;;;;;4955118;28;89299;-74
2022/06/06 06:20:10;;;;;;;3.90;2.30;;;25.70;48.10;;;;;;4958479;28;88583;-74
2022/06/06 06:22:41;;;;;;;2.97;2.30;;;25.70;48.20;;;;;;4956663;28;89005;-74
2022/06/06 06:25:10;;;;;;;3.83;2.27;;;25.70;48.30;;;;;;4954436;28;90130;-74
2022/06/06 06:27:39;;;;;;;5.40;2.43;;;25.70;48.30;;;;;;4953110;28;89116;-73
2022/06/06 06:30:08;;;;;;;1.77;1.50;;;25.70;48.30;;;;;;4954115;28;88794;-73
2022/06/06 06:32:53;;;;;;;4.33;2.23;;;25.70;48.40;;;;;;4956913;28;90549;-74
2022/06/06 06:35:22;;;;;;;2.53;1.67;;;25.80;48.50;;;;;;4955096;28;89997;-74
2022/06/06 06:38:07;;;;;;;5.37;1.80;;;25.80;48.40;;;;;;4955816;28;91701;-73
2022/06/06 06:40:47;;;;;;;3.47;2.20;;;25.80;48.50;;;;;;4947365;28;88888;-73
2022/06/06 06:43:28;;;;;;;9.17;2.13;;;25.80;48.40;;;;;;4951345;28;88745;-74
2022/06/06 06:46:00;;;;;;;3.23;2.20;;;25.80;48.40;;;;;;4950880;28;89434;-73
2022/06/06 06:48:33;;;;;;;3.00;2.00;;;25.80;49.00;;;;;;4955953;28;88374;-73
2022/06/06 06:51:04;;;;;;;4.43;2.23;;;25.80;48.40;;;;;;4954222;28;89341;-73
2022/06/06 06:53:51;;;;;;;5.93;2.37;;;25.80;48.40;;;;;;4954737;28;89819;-74
2022/06/06 06:56:29;;;;;;;2.73;2.20;;;25.80;48.50;;;;;;4944142;28;88957;-74
2022/06/06 06:59:06;;;;;;;2.07;1.83;;;25.80;48.40;;;;;;4949295;28;88712;-72
2022/06/06 07:01:36;;;;;;;4.97;2.17;;;25.80;48.50;;;;;;4950734;28;88451;-73
2022/06/06 07:10:07;;;;;;;2.07;1.57;;;25.80;48.30;;;;;;4949791;28;88807;-73
2022/06/06 07:12:49;;;;;;;4.57;1.80;;;25.80;49.00;;;;;;4952680;28;88672;-74
2022/06/06 07:15:27;;;;;;;2.90;2.10;;;25.70;48.30;;;;;;4952086;28;91438;-73
2022/06/06 07:17:58;;;;;;;4.93;1.73;;;25.80;48.30;;;;;;4951048;28;89603;-74
2022/06/06 07:20:28;;;;;;;4.37;1.83;;;25.80;48.20;;;;;;4952524;28;88977;-74
2022/06/06 07:23:02;;;;;;;4.03;1.50;;;25.80;48.20;;;;;;4953009;28;88568;-74
2022/06/06 07:25:33;;;;;;;2.23;1.63;;;25.80;48.20;;;;;;4948822;28;92176;-74
2022/06/06 07:28:01;;;;;;;2.30;1.63;;;25.70;48.10;;;;;;4952812;28;93051;-74
2022/06/06 07:30:30;;;;;;;1.70;1.30;;;25.70;48.00;;;;;;4955118;28;90108;-73
2022/06/06 07:33:05;;;;;;;2.03;1.40;;;25.70;48.00;;;;;;4949864;28;89500;-73
2022/06/06 07:35:39;;;;;;;5.17;2.43;;;25.70;48.00;;;;;;4948919;28;90808;-73
2022/06/06 07:38:17;;;;;;;3.53;1.80;;;25.80;47.90;;;;;;4948139;28;90035;-73
2022/06/06 07:40:54;;;;;;;2.47;1.87;;;25.70;47.80;;;;;;4954610;28;88822;-73
2022/06/06 07:43:38;;;;;;;3.73;2.07;;;25.70;48.50;;;;;;4948262;28;88743;-73
2022/06/06 07:46:11;;;;;;;3.27;1.47;;;25.70;47.90;;;;;;4952076;28;91107;-73
2022/06/06 07:48:50;;;;;;;4.30;2.00;;;25.70;47.90;;;;;;4952913;28;92828;-73
2022/06/06 07:51:24;;;;;;;4.50;2.10;;;25.70;47.80;;;;;;4955397;28;90645;-72
2022/06/06 07:53:54;;;;;;;6.17;2.67;;;25.70;48.50;;;;;;4951680;28;88648;-72
2022/06/06 07:56:25;;;;;;;3.93;2.40;;;25.70;47.80;;;;;;4951320;28;91047;-73
2022/06/06 07:59:02;;;;;;;3.40;2.50;;;25.70;47.80;;;;;;4955416;28;88778;-73
2022/06/06 08:01:33;;;;;;;3.20;2.40;;;25.70;47.80;;;;;;4954033;28;89345;-73
2022/06/06 08:04:07;;;;;;;4.03;2.23;;;25.70;47.80;;;;;;4955666;28;88595;-73
2022/06/06 08:06:39;;;;;;;2.57;1.80;;;25.70;47.70;;;;;;4953908;28;93311;-73
2022/06/06 08:09:18;;;;;;;3.20;1.77;;;25.70;47.70;;;;;;4950099;28;90764;-73
2022/06/06 08:12:05;;;;;;;4.93;2.30;;;25.70;47.70;;;;;;4956267;28;88842;-73
2022/06/06 08:14:41;;;;;;;3.53;1.80;;;25.60;47.60;;;;;;4954423;28;89382;-73
2022/06/06 08:17:15;;;;;;;4.50;2.07;;;25.60;47.50;;;;;;4952789;28;92630;-73
2022/06/06 08:19:51;;;;;;;3.50;2.33;;;25.60;47.50;;;;;;4952088;28;89283;-73
2022/06/06 08:22:21;;;;;;;5.37;2.70;;;25.60;47.50;;;;;;4949291;28;89657;-76
2022/06/06 08:24:49;;;;;;;7.27;3.20;;;25.60;47.50;;;;;;4954300;28;89047;-77
2022/06/06 08:27:28;;;;;;;3.33;2.50;;;25.60;47.50;;;;;;4954696;28;89514;-74
2022/06/06 08:29:56;;;;;;;4.97;2.50;;;25.60;47.50;;;;;;4951332;28;89898;-74
2022/06/06 08:32:25;;;;;;;3.60;2.10;;;25.60;47.40;;;;;;4949458;28;88560;-74
2022/06/06 08:34:54;;;;;;;5.10;2.30;;;25.70;47.50;;;;;;4956419;28;88471;-73
2022/06/06 08:37:53;;;;;;;3.90;2.20;;;25.70;47.50;;;;;;4952310;28;89423;-73
2022/06/06 08:40:49;;;;;;;4.70;2.23;;;25.70;47.40;;;;;;4954412;28;89514;-70
2022/06/06 08:43:18;;;;;;;2.63;1.80;;;25.70;47.50;;;;;;4952109;28;88666;-71
2022/06/06 08:45:50;;;;;;;7.43;2.60;;;25.80;47.50;;;;;;4956611;28;89344;-76
2022/06/06 08:48:34;;;;;;;3.23;1.90;;;25.70;47.60;;;;;;4956466;28;91748;-78
2022/06/06 08:51:03;;;;;;;2.57;1.70;;;25.70;47.70;;;;;;4951492;28;91507;-79
2022/06/06 08:53:59;;;;;;;4.20;1.87;;;25.80;47.80;;;;;;4959149;28;89898;-77
2022/06/06 08:56:59;;;;;;;4.27;1.50;;;25.80;47.90;;;;;;4951962;28;88412;-77
2022/06/06 09:00:05;;;;;;;5.53;1.70;;;25.70;47.90;;;;;;4953984;28;89763;-78
2022/06/06 09:02:47;;;;;;;2.43;1.40;;;25.80;48.00;;;;;;4937835;28;89371;-79
2022/06/06 09:05:29;;;;;;;6.53;1.70;;;25.80;48.20;;;;;;4956593;28;89759;-79
2022/06/06 09:08:35;;;;;;;2.47;1.43;;;25.80;48.30;;;;;;4956947;28;89915;-77
2022/06/06 09:11:32;;;;;;;3.67;1.10;;;25.70;48.40;;;;;;4939594;28;91587;-78
2022/06/06 09:14:30;;;;;;;2.43;1.30;;;25.70;49.10;;;;;;4953921;28;89597;-77
2022/06/06 09:17:32;;;;;;;3.03;1.70;;;25.70;48.50;;;;;;4953468;28;88951;-76
2022/06/06 09:20:35;;;;;;;5.27;1.73;;;25.70;48.50;;;;;;4932657;28;88651;-76
2022/06/06 09:23:39;;;;;;;2.93;1.73;;;25.60;48.40;;;;;;4948504;28;89684;-79
2022/06/06 09:26:15;;;;;;;7.30;3.63;;;25.60;48.50;;;;;;4956655;28;90607;-78
2022/06/06 09:29:09;;;;;;;10.13;2.90;;;25.60;48.50;;;;;;4952451;28;90684;-77
2022/06/06 09:32:03;;;;;;;11.30;3.50;;;25.60;48.50;;;;;;4953793;28;89717;-75
2022/06/06 09:34:55;;;;;;;20.77;7.77;;;25.70;48.60;;;;;;4951209;28;90122;-76
2022/06/06 09:37:33;;;;;;;15.43;5.03;;;25.70;48.60;;;;;;4946102;28;89154;-79
2022/06/06 09:40:17;;;;;;;10.93;3.87;;;25.80;48.70;;;;;;4952398;28;90380;-77
2022/06/06 09:43:09;;;;;;;9.90;4.20;;;25.80;48.80;;;;;;4951051;28;88539;-79
2022/06/06 09:45:51;;;;;;;5.37;3.20;;;25.80;48.80;;;;;;4954469;28;92727;-77
2022/06/06 09:48:38;;;;;;;8.20;2.37;;;25.80;48.80;;;;;;4953983;28;90294;-77
2022/06/06 09:51:40;;;;;;;4.93;2.80;;;25.80;48.80;;;;;;4952597;28;88394;-76
2022/06/06 10:01:01;;;;;;;6.00;3.07;;;25.70;49.10;;;;;;4939772;28;89383;-78
2022/06/06 10:04:09;;;;;;;6.87;2.67;;;25.70;49.10;;;;;;4951847;28;89788;-77
2022/06/06 10:07:16;;;;;;;4.13;2.07;;;25.60;49.10;;;;;;4955895;28;89628;-77
2022/06/06 10:10:18;;;;;;;5.43;2.37;;;25.70;49.20;;;;;;4935497;28;91237;-76
2022/06/06 10:12:54;;;;;;;6.77;2.30;;;25.70;49.20;;;;;;4936289;28;88971;-77
2022/06/06 10:15:42;;;;;;;11.07;3.67;;;25.70;49.10;;;;;;4942022;28;89848;-77
2022/06/06 10:18:27;;;;;;;4.40;2.53;;;25.70;49.20;;;;;;4941702;28;89626;-75
2022/06/06 10:21:11;;;;;;;7.83;3.30;;;25.70;49.30;;;;;;4939127;28;90536;-75
2022/06/06 10:23:55;;;;;;;4.70;2.80;;;25.80;49.30;;;;;;4941976;28;90125;-76
2022/06/06 10:26:48;;;;;;;5.07;3.30;;;25.80;49.30;;;;;;4947119;28;88504;-75
2022/06/06 10:32:41;;;;;;;3.27;1.93;;;25.80;49.30;;;;;;4955730;28;89696;-75
2022/06/06 10:35:31;;;;;;;4.87;2.60;;;25.90;49.40;;;;;;4957308;28;90045;-74
2022/06/06 10:38:03;;;;;;;8.17;2.90;;;25.90;49.40;;;;;;4958034;28;88837;-73
2022/06/06 10:40:50;;;;;;;3.27;2.03;;;25.90;49.50;;;;;;4956791;28;88583;-73
2022/06/06 10:43:35;;;;;;;2.27;1.90;;;25.80;49.60;;;;;;4958498;28;89628;-75
2022/06/06 10:46:06;;;;;;;3.90;2.50;;;25.80;49.60;;;;;;4948685;28;89031;-75
2022/06/06 10:48:52;;;;;;;8.60;3.27;;;25.80;49.60;;;;;;4958016;28;89013;-76
2022/06/06 10:52:09;;;;;;;2.50;1.90;;;25.80;49.60;;;;;;4953055;28;88664;-76
2022/06/06 10:55:14;;;;;;;5.27;1.97;;;25.70;49.60;;;;;;4947853;28;91229;-77
2022/06/06 10:58:15;;;;;;;4.50;2.07;;;25.70;49.60;;;;;;4953199;28;90079;-78
2022/06/06 11:00:56;;;;;;;2.47;1.90;;;25.60;49.60;;;;;;4954130;28;89763;-77
2022/06/06 11:03:54;;;;;;;5.00;2.23;;;25.60;49.60;;;;;;4956801;28;90063;-79
2022/06/06 11:06:41;;;;;;;4.97;2.00;;;25.60;49.60;;;;;;4932991;28;92896;-77
2022/06/06 11:09:46;;;;;;;4.20;2.07;;;25.60;50.20;;;;;;4938860;28;90361;-77
2022/06/06 11:12:25;;;;;;;2.27;1.80;;;25.50;49.60;;;;;;4938766;28;89251;-77
2022/06/06 11:14:55;;;;;;;3.93;1.93;;;25.50;49.60;;;;;;4938762;28;88795;-77
2022/06/06 11:17:44;;;;;;;3.37;1.63;;;25.50;49.60;;;;;;4939010;28;89006;-75
2022/06/06 11:20:48;;;;;;;5.57;2.13;;;25.50;49.70;;;;;;4938127;28;91734;-75
2022/06/06 11:27:35;;;;;;;3.53;1.90;;;25.50;49.70;;;;;;4936880;28;88594;-76
2022/06/06 11:30:58;;;;;;;2.97;2.00;;;25.50;49.90;;;;;;4936891;28;88976;-76
2022/06/06 11:33:54;;;;;;;3.23;2.00;;;25.40;49.70;;;;;;4880197;28;92935;-76
2022/06/06 11:36:43;;;;;;;3.80;2.40;;;25.40;49.70;;;;;;4866827;28;88525;-77
2022/06/06 11:39:28;;;;;;;3.33;2.07;;;25.50;49.70;;;;;;4894016;28;88645;-77
2022/06/06 11:42:14;;;;;;;2.77;2.17;;;25.50;49.70;;;;;;4895860;28;89248;-77
2022/06/06 11:44:57;;;;;;;3.50;1.93;;;25.50;49.60;;;;;;4893781;28;89802;-76
2022/06/06 11:47:51;;;;;;;2.40;1.60;;;25.50;49.60;;;;;;4894409;28;91248;-76
2022/06/06 11:50:47;;;;;;;3.83;1.60;;;25.50;49.60;;;;;;4898665;28;88842;-76
2022/06/06 11:53:47;;;;;;;2.53;1.93;;;25.50;49.70;;;;;;4896983;28;89528;-77
2022/06/06 11:56:19;;;;;;;3.07;1.80;;;25.50;49.70;;;;;;4898660;28;88942;-77
2022/06/06 11:59:16;;;;;;;1.93;1.67;;;25.50;49.70;;;;;;4898157;28;88559;-77
2022/06/06 12:02:02;;;;;;;1.90;1.50;;;25.50;49.70;;;;;;4896712;28;88453;-77
2022/06/06 12:04:58;;;;;;;2.50;1.43;;;25.50;49.70;;;;;;4928739;28;89674;-77
2022/06/06 12:07:46;;;;;;;4.27;2.20;;;25.50;49.70;;;;;;4952922;28;89005;-77
2022/06/06 12:10:18;;;;;;;1.87;1.63;;;25.50;49.70;;;;;;4936520;28;88711;-78
2022/06/06 12:12:53;;;;;;;3.67;1.97;;;25.50;49.70;;;;;;4955592;28;89219;-78
2022/06/06 12:15:53;;;;;;;4.73;2.30;;;25.50;49.70;;;;;;4955408;28;93067;-77
2022/06/06 12:18:30;;;;;;;3.70;2.63;;;25.40;49.60;;;;;;4963187;28;91064;-77
2022/06/06 12:21:22;;;;;;;3.43;2.30;;;25.40;49.60;;;;;;4961940;28;88617;-77
2022/06/06 12:24:20;;;;;;;7.77;2.80;;;25.40;49.70;;;;;;4954490;28;88656;-77
2022/06/06 12:27:10;;;;;;;3.97;2.00;;;25.40;49.70;;;;;;4932695;28;91324;-76
2022/06/06 12:30:05;;;;;;;3.00;1.90;;;25.40;49.70;;;;;;4947783;28;91395;-78
2022/06/06 12:32:54;;;;;;;3.90;1.97;;;25.30;49.80;;;;;;4950740;28;88700;-76
2022/06/06 12:35:24;;;;;;;5.33;1.97;;;25.30;49.80;;;;;;4951354;28;88544;-76
2022/06/06 12:38:13;;;;;;;2.93;2.23;;;25.30;49.80;;;;;;4958735;28;90480;-76
2022/06/06 12:40:49;;;;;;;2.77;1.67;;;25.20;49.80;;;;;;4958919;28;93109;-75
2022/06/06 12:43:22;;;;;;;3.70;2.03;;;25.20;49.80;;;;;;4959188;28;88505;-76
2022/06/06 12:45:59;;;;;;;3.77;2.03;;;25.20;49.90;;;;;;4957295;28;88567;-77
2022/06/06 12:48:42;;;;;;;3.33;2.17;;;25.20;49.90;;;;;;4955423;28;90699;-76
2022/06/06 12:51:18;;;;;;;1.77;1.50;;;25.10;49.80;;;;;;4956001;28;90265;-76
2022/06/06 12:54:24;;;;;;;2.10;1.60;;;25.10;49.90;;;;;;4953469;28;88364;-76
2022/06/06 12:56:59;;;;;;;1.77;0.93;;;25.00;49.90;;;;;;4958738;28;88517;-76
2022/06/06 12:59:53;;;;;;;2.40;1.37;;;25.00;49.80;;;;;;4955616;28;93443;-76
2022/06/06 13:02:47;;;;;;;1.23;0.97;;;25.00;49.90;;;;;;4954073;28;89015;-76
2022/06/06 13:05:27;;;;;;;0.90;0.90;;;25.00;49.90;;;;;;4961728;28;89010;-76
2022/06/06 13:08:26;;;;;;;1.20;1.10;;;25.00;49.80;;;;;;4958578;28;88504;-76
2022/06/06 13:11:09;;;;;;;1.17;0.90;;;25.00;49.80;;;;;;4943828;28;93179;-76
2022/06/06 13:14:02;;;;;;;5.43;0.97;;;25.00;49.80;;;;;;4950951;28;89482;-75
2022/06/06 13:16:37;;;;;;;2.20;1.10;;;24.90;49.80;;;;;;4938977;28;88691;-76
2022/06/06 13:19:17;;;;;;;1.57;1.20;;;24.90;49.80;;;;;;4942602;28;88450;-75
2022/06/06 13:21:51;;;;;;;1.80;0.90;;;24.90;49.80;;;;;;4941716;28;89597;-76
2022/06/06 13:24:40;;;;;;;0.67;0.67;;;24.90;49.80;;;;;;4925759;28;88818;-76
2022/06/06 13:27:22;;;;;;;0.80;0.80;;;24.90;49.80;;;;;;4941717;28;89714;-76
2022/06/06 13:29:52;;;;;;;2.10;1.07;;;24.90;49.80;;;;;;4942685;28;88345;-76
2022/06/06 13:32:38;;;;;;;2.83;1.20;;;24.90;49.60;;;;;;4941836;28;88943;-75
2022/06/06 13:35:15;;;;;;;1.07;0.70;;;24.90;49.70;;;;;;4940967;28;89419;-74
2022/06/06 13:37:53;;;;;;;1.20;1.10;;;24.90;49.70;;;;;;4939871;28;89243;-75
2022/06/06 13:40:32;;;;;;;1.40;0.87;;;24.90;49.70;;;;;;4941719;28;88635;-75
2022/06/06 13:43:27;;;;;;;1.97;1.20;;;25.00;49.70;;;;;;4942531;28;90794;-75
2022/06/06 13:46:05;;;;;;;0.80;0.70;;;25.00;49.70;;;;;;4944319;28;89850;-75
2022/06/06 13:49:06;;;;;;;1.60;1.40;;;25.10;49.70;;;;;;4940857;28;90291;-76
2022/06/06 13:51:44;;;;;;;1.27;1.17;;;25.10;49.70;;;;;;4921430;28;88717;-76
2022/06/06 13:54:27;;;;;;;2.87;1.27;;;25.10;49.70;;;;;;4941245;28;90741;-76
2022/06/06 13:57:19;;;;;;;1.93;1.50;;;25.20;49.70;;;;;;4941123;28;90209;-76
2022/06/06 14:00:16;;;;;;;3.23;1.13;;;25.20;49.70;;;;;;4936689;28;88887;-75
2022/06/06 14:02:58;;;;;;;1.60;1.20;;;25.20;49.70;;;;;;4941526;28;88961;-75
2022/06/06 14:05:57;;;;;;;1.40;1.07;;;25.20;49.70;;;;;;4945165;28;89495;-76
2022/06/06 14:08:50;;;;;;;1.57;1.27;;;25.20;49.70;;;;;;4914281;28;89637;-76
2022/06/06 14:11:43;;;;;;;3.57;1.40;;;25.20;49.80;;;;;;4941129;28;88572;-76
2022/06/06 14:14:14;;;;;;;2.67;1.90;;;25.20;49.80;;;;;;4926226;28;88662;-76